createdAt,value
2022-09-24T00:01:47.871Z,5.10
2022-09-24T00:04:18.880Z,5.00
2022-09-24T00:06:47.522Z,5.23
2022-09-24T00:09:16.682Z,5.10
2022-09-24T00:11:51.336Z,4.83
2022-09-24T00:14:19.378Z,5.40
2022-09-24T00:16:47.413Z,5.10
2022-09-24T00:19:15.749Z,4.57
2022-09-24T00:21:45.187Z,4.70
2022-09-24T00:24:35.835Z,5.07
2022-09-24T00:27:03.611Z,5.30
2022-09-24T00:29:34.410Z,5.10
2022-09-24T00:32:03.089Z,4.17
2022-09-24T00:34:31.123Z,4.73
2022-09-24T00:37:00.518Z,5.00
2022-09-24T00:39:28.625Z,4.20
2022-09-24T00:41:56.630Z,5.00
2022-09-24T00:44:55.557Z,4.50
2022-09-24T00:47:34.693Z,5.13
2022-09-24T00:50:08.211Z,5.03
2022-09-24T00:52:39.889Z,4.77
2022-09-24T00:55:09.066Z,4.80
2022-09-24T00:57:37.655Z,4.70
2022-09-24T01:00:07.134Z,4.77
2022-09-24T01:02:45.908Z,4.43
2022-09-24T01:05:14.806Z,5.00
2022-09-24T01:07:44.838Z,4.20
2022-09-24T01:10:12.869Z,4.57
2022-09-24T01:12:45.214Z,4.57
2022-09-24T01:15:19.680Z,4.80
2022-09-24T01:17:49.765Z,4.30
2022-09-24T01:20:51.667Z,4.80
2022-09-24T01:23:36.508Z,5.00
2022-09-24T01:26:19.142Z,4.83
2022-09-24T01:28:55.612Z,4.80
2022-09-24T01:31:26.809Z,4.70
2022-09-24T01:34:20.384Z,4.53
2022-09-24T01:36:50.124Z,4.97
2022-09-24T01:39:18.120Z,5.07
2022-09-24T01:41:47.238Z,4.60
2022-09-24T01:44:16.118Z,4.37
2022-09-24T01:46:45.631Z,4.57
2022-09-24T01:49:13.733Z,4.47
2022-09-24T01:51:48.298Z,5.37
2022-09-24T01:54:18.468Z,4.97
2022-09-24T01:56:48.130Z,4.77
2022-09-24T01:59:17.902Z,4.70
2022-09-24T02:01:50.326Z,4.97
2022-09-24T02:04:19.397Z,4.70
2022-09-24T02:06:49.347Z,4.50
2022-09-24T02:09:33.768Z,4.43
2022-09-24T02:12:04.451Z,4.80
2022-09-24T02:14:33.006Z,5.50
2022-09-24T02:17:02.387Z,4.20
2022-09-24T02:19:31.028Z,4.97
2022-09-24T02:21:59.058Z,4.70
2022-09-24T02:24:30.842Z,5.13
2022-09-24T02:27:02.815Z,4.23
2022-09-24T02:29:30.837Z,4.30
2022-09-24T02:31:58.829Z,4.40
2022-09-24T02:34:35.667Z,4.43
2022-09-24T02:37:06.361Z,4.93
2022-09-24T02:39:34.401Z,4.80
2022-09-24T02:42:02.661Z,4.40
2022-09-24T02:44:31.369Z,4.43
2022-09-24T02:47:02.854Z,4.40
2022-09-24T02:49:30.878Z,5.10
2022-09-24T02:52:00.325Z,4.30
2022-09-24T02:54:28.334Z,4.80
2022-09-24T02:56:56.347Z,5.43
2022-09-24T02:59:24.368Z,5.30
2022-09-24T03:01:52.569Z,4.90
2022-09-24T03:04:20.717Z,4.50
2022-09-24T03:06:48.755Z,4.53
2022-09-24T03:09:22.461Z,4.87
2022-09-24T03:11:50.712Z,4.90
2022-09-24T03:14:20.838Z,5.17
2022-09-24T03:16:48.833Z,5.20
2022-09-24T03:19:16.850Z,4.90
2022-09-24T03:21:44.868Z,4.90
2022-09-24T03:24:12.903Z,4.87
2022-09-24T03:26:42.716Z,4.60
2022-09-24T03:29:11.198Z,4.17
2022-09-24T03:31:38.321Z,4.40
2022-09-24T03:34:06.385Z,4.70
2022-09-24T03:36:34.735Z,4.60
2022-09-24T03:39:02.793Z,4.93
2022-09-24T03:41:30.839Z,5.17
2022-09-24T03:44:00.247Z,5.07
2022-09-24T03:46:28.581Z,5.23
2022-09-24T03:48:57.253Z,5.30
2022-09-24T03:51:26.072Z,5.10
2022-09-24T03:53:54.139Z,4.60
2022-09-24T03:56:22.500Z,5.50
2022-09-24T03:58:50.857Z,4.87
2022-09-24T04:01:21.249Z,5.47
2022-09-24T04:03:49.839Z,4.73
2022-09-24T04:06:22.083Z,4.93
2022-09-24T04:08:51.637Z,5.13
2022-09-24T04:11:20.062Z,5.20
2022-09-24T04:13:50.899Z,4.90
2022-09-24T04:16:20.338Z,5.30
2022-09-24T04:18:51.013Z,4.63
2022-09-24T04:21:19.088Z,5.00
2022-09-24T04:23:47.140Z,5.20
2022-09-24T04:26:15.276Z,4.97
2022-09-24T04:28:43.299Z,5.10
2022-09-24T04:31:11.360Z,5.17
2022-09-24T04:33:40.801Z,4.80
2022-09-24T04:36:08.962Z,5.77
2022-09-24T04:38:36.973Z,4.70
2022-09-24T04:41:08.323Z,4.60
2022-09-24T04:43:36.969Z,5.27
2022-09-24T04:46:05.159Z,5.40
2022-09-24T04:48:33.292Z,5.07
2022-09-24T04:51:06.353Z,5.07
2022-09-24T04:53:34.411Z,5.33
2022-09-24T04:56:03.644Z,5.27
2022-09-24T04:58:31.847Z,5.33
2022-09-24T05:01:04.098Z,5.63
2022-09-24T05:03:33.231Z,5.27
2022-09-24T05:06:01.986Z,5.23
2022-09-24T05:08:31.414Z,5.80
2022-09-24T05:11:00.079Z,5.40
2022-09-24T05:13:28.403Z,5.53
2022-09-24T05:15:56.486Z,5.20
2022-09-24T05:18:24.639Z,5.17
2022-09-24T05:20:52.627Z,4.93
2022-09-24T05:23:20.665Z,5.00
2022-09-24T05:26:09.831Z,5.70
2022-09-24T05:28:39.618Z,5.53
2022-09-24T05:31:08.540Z,5.40
2022-09-24T05:33:36.818Z,5.23
2022-09-24T05:36:05.007Z,5.27
2022-09-24T05:38:34.016Z,4.63
2022-09-24T05:41:03.968Z,5.10
2022-09-24T05:43:32.168Z,5.40
2022-09-24T05:46:03.002Z,5.03
2022-09-24T05:48:31.077Z,5.20
2022-09-24T05:51:03.007Z,4.93
2022-09-24T05:53:31.058Z,6.00
2022-09-24T05:55:59.164Z,4.90
2022-09-24T05:58:28.609Z,5.10
2022-09-24T06:00:56.633Z,5.60
2022-09-24T06:03:24.743Z,4.90
2022-09-24T06:05:52.826Z,5.20
2022-09-24T06:08:22.034Z,4.93
2022-09-24T06:10:50.407Z,5.23
2022-09-24T06:13:20.973Z,5.13
2022-09-24T06:15:50.462Z,5.30
2022-09-24T06:18:18.567Z,5.70
2022-09-24T06:20:47.040Z,5.10
2022-09-24T06:23:15.105Z,5.63
2022-09-24T06:25:43.381Z,4.90
2022-09-24T06:28:11.442Z,5.33
2022-09-24T06:30:39.968Z,5.27
2022-09-24T06:33:09.948Z,4.67
2022-09-24T06:35:38.114Z,5.30
2022-09-24T06:38:06.315Z,5.50
2022-09-24T06:40:37.467Z,5.10
2022-09-24T06:43:06.373Z,5.10
2022-09-24T06:45:34.420Z,4.77
2022-09-24T06:48:03.152Z,5.37
2022-09-24T06:50:34.375Z,5.33
2022-09-24T06:53:05.426Z,4.93
2022-09-24T06:55:33.824Z,4.87
2022-09-24T06:58:05.773Z,5.60
2022-09-24T07:00:34.013Z,5.67
2022-09-24T07:03:02.135Z,5.20
2022-09-24T07:05:30.232Z,5.37
2022-09-24T07:07:59.670Z,5.43
2022-09-24T07:10:28.126Z,5.40
2022-09-24T07:12:56.190Z,4.63
2022-09-24T07:15:24.216Z,4.90
2022-09-24T07:17:57.285Z,5.27
2022-09-24T07:20:28.156Z,4.80
2022-09-24T07:22:56.265Z,4.90
2022-09-24T07:25:25.666Z,5.40
2022-09-24T07:27:53.799Z,5.00
2022-09-24T07:30:27.025Z,5.23
2022-09-24T07:32:56.445Z,5.00
2022-09-24T07:35:27.175Z,5.10
2022-09-24T07:37:59.454Z,4.80
2022-09-24T07:40:29.325Z,5.10
2022-09-24T07:42:58.573Z,4.67
2022-09-24T07:45:28.068Z,4.80
2022-09-24T07:47:59.984Z,4.63
2022-09-24T07:50:28.598Z,4.57
2022-09-24T07:52:57.119Z,5.20
2022-09-24T07:55:25.804Z,5.20
2022-09-24T07:57:56.035Z,4.93
2022-09-24T08:00:24.480Z,4.70
2022-09-24T08:02:53.930Z,5.30
2022-09-24T08:05:27.112Z,5.37
2022-09-24T08:07:55.567Z,4.80
2022-09-24T08:10:23.607Z,5.40
2022-09-24T08:12:51.729Z,5.53
2022-09-24T08:15:22.793Z,4.80
2022-09-24T08:17:50.973Z,4.40
2022-09-24T08:20:19.120Z,4.57
2022-09-24T08:22:47.150Z,4.60
2022-09-24T08:25:15.197Z,4.93
2022-09-24T08:27:43.221Z,4.90
2022-09-24T08:30:12.595Z,5.10
2022-09-24T08:32:41.993Z,5.00
2022-09-24T08:35:10.546Z,4.97
2022-09-24T08:37:39.114Z,4.53
2022-09-24T08:40:08.590Z,4.80
2022-09-24T08:42:38.215Z,4.40
2022-09-24T08:45:24.011Z,4.57
2022-09-24T08:47:55.071Z,4.80
2022-09-24T08:50:24.095Z,4.93
2022-09-24T08:52:59.597Z,4.77
2022-09-24T08:55:36.063Z,4.90
2022-09-24T08:58:12.958Z,4.50
2022-09-24T09:00:43.349Z,5.33
2022-09-24T09:03:14.620Z,5.27
2022-09-24T09:05:50.594Z,4.90
2022-09-24T09:08:45.000Z,4.63
2022-09-24T09:11:09.380Z,5.40
2022-09-24T09:13:39.641Z,4.90
2022-09-24T09:16:09.096Z,4.77
2022-09-24T09:18:39.020Z,4.60
2022-09-24T09:21:11.850Z,4.90
2022-09-24T09:23:44.474Z,4.63
2022-09-24T09:26:12.780Z,4.40
2022-09-24T09:28:40.873Z,4.83
2022-09-24T09:31:12.210Z,5.00
2022-09-24T09:33:54.152Z,4.60
2022-09-24T09:36:37.171Z,4.53
2022-09-24T09:39:10.206Z,4.70
2022-09-24T09:41:41.521Z,5.03
2022-09-24T09:44:13.122Z,4.73
2022-09-24T09:46:43.617Z,5.00
2022-09-24T09:49:13.102Z,4.53
2022-09-24T09:51:43.143Z,4.67
2022-09-24T09:54:15.141Z,5.10
2022-09-24T09:56:44.682Z,5.30
2022-09-24T09:59:18.904Z,4.20
2022-09-24T10:01:47.771Z,5.20
2022-09-24T10:04:37.235Z,4.60
2022-09-24T10:07:07.058Z,5.23
2022-09-24T10:09:35.065Z,4.70
2022-09-24T10:12:10.892Z,4.47
2022-09-24T10:14:39.201Z,4.33
2022-09-24T10:17:07.214Z,4.97
2022-09-24T10:19:39.073Z,4.50
2022-09-24T10:22:10.960Z,4.30
2022-09-24T10:24:39.196Z,4.30
2022-09-24T10:27:12.308Z,4.07
2022-09-24T10:29:57.619Z,5.17
2022-09-24T10:32:26.250Z,4.80
2022-09-24T10:34:59.221Z,4.70
2022-09-24T10:37:27.234Z,4.47
2022-09-24T10:40:01.533Z,4.10
2022-09-24T10:42:30.598Z,4.60
2022-09-24T10:45:01.022Z,4.63
2022-09-24T10:47:29.197Z,4.93
2022-09-24T10:50:18.660Z,4.40
2022-09-24T10:52:48.548Z,5.17
2022-09-24T10:55:25.038Z,4.97
2022-09-24T10:58:00.063Z,5.20
2022-09-24T11:00:31.047Z,4.67
2022-09-24T11:03:18.605Z,4.30
2022-09-24T11:05:52.773Z,4.53
2022-09-24T11:08:27.088Z,4.60
2022-09-24T11:11:15.632Z,3.90
2022-09-24T11:13:51.160Z,4.40
2022-09-24T11:16:48.424Z,4.70
2022-09-24T11:19:23.698Z,5.10
2022-09-24T11:22:04.087Z,4.93
2022-09-24T11:24:40.963Z,4.80
2022-09-24T11:27:23.716Z,4.73
2022-09-24T11:30:01.347Z,4.43
2022-09-24T11:32:32.133Z,4.40
2022-09-24T11:35:32.282Z,4.40
2022-09-24T11:38:03.337Z,4.50
2022-09-24T11:40:47.436Z,4.60
2022-09-24T11:43:28.299Z,4.43
2022-09-24T11:46:01.250Z,4.77
2022-09-24T11:48:40.955Z,4.33
2022-09-24T11:51:15.503Z,4.67
2022-09-24T11:53:48.687Z,4.50
2022-09-24T11:56:18.577Z,4.37
2022-09-24T11:58:48.474Z,4.97
2022-09-24T12:01:17.866Z,4.17
2022-09-24T12:03:48.448Z,4.37
2022-09-24T12:06:18.231Z,4.30
2022-09-24T12:08:49.963Z,4.40
2022-09-24T12:11:20.827Z,4.70
2022-09-24T12:13:52.284Z,4.40
2022-09-24T12:16:21.988Z,5.50
2022-09-24T12:18:52.714Z,4.57
2022-09-24T12:21:22.383Z,4.90
2022-09-24T12:23:56.246Z,4.10
2022-09-24T12:26:31.216Z,4.80
2022-09-24T12:29:18.111Z,4.50
2022-09-24T12:32:07.741Z,4.57
2022-09-24T12:34:40.642Z,4.33
2022-09-24T12:37:10.127Z,4.03
2022-09-24T12:39:42.148Z,4.67
2022-09-24T12:42:10.461Z,4.33
2022-09-24T12:44:42.046Z,4.33
2022-09-24T12:47:17.036Z,4.70
2022-09-24T12:49:45.348Z,4.40
2022-09-24T12:52:18.181Z,4.40
2022-09-24T12:54:47.586Z,4.70
2022-09-24T12:57:21.325Z,5.00
2022-09-24T12:59:53.129Z,4.43
2022-09-24T13:02:22.203Z,4.37
2022-09-24T13:05:06.635Z,5.10
2022-09-24T13:07:35.722Z,4.60
2022-09-24T13:10:22.787Z,4.67
2022-09-24T13:12:50.923Z,4.50
2022-09-24T13:15:35.418Z,4.53
2022-09-24T13:18:18.429Z,4.73
2022-09-24T13:20:50.509Z,4.63
2022-09-24T13:23:32.140Z,4.67
2022-09-24T13:26:03.820Z,3.83
2022-09-24T13:28:38.624Z,4.83
2022-09-24T13:31:11.746Z,5.17
2022-09-24T13:33:41.820Z,4.90
2022-09-24T13:36:13.555Z,4.60
2022-09-24T13:38:45.730Z,5.20
2022-09-24T13:41:21.091Z,4.30
2022-09-24T13:43:52.116Z,4.43
2022-09-24T13:46:20.259Z,4.47
2022-09-24T13:48:51.141Z,4.97
2022-09-24T13:51:19.472Z,4.77
2022-09-24T13:53:49.846Z,4.43
2022-09-24T13:56:20.148Z,5.00
2022-09-24T13:58:48.316Z,4.23
2022-09-24T14:01:18.632Z,4.50
2022-09-24T14:03:53.043Z,4.60
2022-09-24T14:06:33.618Z,4.90
2022-09-24T14:09:02.295Z,4.73
2022-09-24T14:11:31.725Z,4.87
2022-09-24T14:14:09.601Z,4.50
2022-09-24T14:16:37.602Z,4.60
2022-09-24T14:19:06.676Z,4.43
2022-09-24T14:21:35.830Z,4.90
2022-09-24T14:24:05.542Z,4.73
2022-09-24T14:26:36.166Z,4.70
2022-09-24T14:29:12.731Z,5.20
2022-09-24T14:31:47.543Z,4.10
2022-09-24T14:34:23.968Z,5.03
2022-09-24T14:36:52.243Z,4.60
2022-09-24T14:39:25.005Z,4.20
2022-09-24T14:41:54.398Z,4.80
2022-09-24T14:44:23.527Z,4.13
2022-09-24T14:46:58.257Z,4.63
2022-09-24T14:49:27.073Z,4.27
2022-09-24T14:51:56.704Z,5.27
2022-09-24T14:54:30.025Z,4.77
2022-09-24T14:57:10.115Z,4.60
2022-09-24T14:59:38.841Z,5.03
2022-09-24T15:02:19.549Z,4.20
2022-09-24T15:04:53.570Z,5.07
2022-09-24T15:07:24.085Z,4.60
2022-09-24T15:09:52.682Z,4.77
2022-09-24T15:12:25.211Z,5.07
2022-09-24T15:14:57.016Z,4.17
2022-09-24T15:17:27.122Z,5.00
2022-09-24T15:19:57.726Z,4.80
2022-09-24T15:22:26.910Z,5.10
2022-09-24T15:25:00.269Z,4.50
2022-09-24T15:27:31.519Z,4.20
2022-09-24T15:30:00.607Z,4.63
2022-09-24T15:32:29.225Z,4.90
2022-09-24T15:34:57.495Z,4.83
2022-09-24T15:37:26.353Z,5.10
2022-09-24T15:39:57.313Z,4.97
2022-09-24T15:42:26.048Z,5.13
2022-09-24T15:44:55.472Z,5.23
2022-09-24T15:47:23.490Z,4.80
2022-09-24T15:49:51.519Z,5.53
2022-09-24T15:52:24.466Z,4.70
2022-09-24T15:54:52.645Z,5.03
2022-09-24T15:57:20.704Z,4.73
2022-09-24T15:59:48.747Z,4.77
2022-09-24T16:02:20.000Z,4.83
2022-09-24T16:04:48.080Z,5.07
2022-09-24T16:07:16.103Z,4.90
2022-09-24T16:09:44.127Z,4.13
2022-09-24T16:12:12.926Z,4.80
2022-09-24T16:14:40.938Z,4.70
2022-09-24T16:17:08.965Z,5.20
2022-09-24T16:19:38.364Z,5.10
2022-09-24T16:22:06.405Z,5.10
2022-09-24T16:24:34.519Z,4.90
2022-09-24T16:27:02.657Z,4.40
2022-09-24T16:29:39.509Z,4.30
2022-09-24T16:32:07.524Z,4.87
2022-09-24T16:34:35.564Z,4.60
2022-09-24T16:37:04.991Z,5.20
2022-09-24T16:39:33.232Z,4.63
2022-09-24T16:42:01.281Z,4.57
2022-09-24T16:44:33.529Z,4.90
2022-09-24T16:47:01.670Z,4.83
2022-09-24T16:49:29.807Z,5.10
2022-09-24T16:51:57.774Z,4.53
2022-09-24T16:54:31.304Z,4.40
2022-09-24T16:56:59.375Z,4.40
2022-09-24T16:59:27.497Z,5.30
2022-09-24T17:01:55.577Z,4.80
2022-09-24T17:04:23.967Z,4.80
2022-09-24T17:06:52.165Z,4.97
2022-09-24T17:09:40.375Z,5.27
2022-09-24T17:12:10.948Z,4.80
2022-09-24T17:14:39.025Z,4.47
2022-09-24T17:17:07.108Z,5.50
2022-09-24T17:19:35.160Z,5.57
2022-09-24T17:22:03.193Z,4.60
2022-09-24T17:24:31.797Z,4.93
2022-09-24T17:27:01.535Z,4.47
2022-09-24T17:29:31.832Z,4.90
2022-09-24T17:32:00.051Z,4.53
2022-09-24T17:34:28.310Z,4.80
2022-09-24T17:36:56.582Z,5.23
2022-09-24T17:39:24.970Z,5.30
2022-09-24T17:41:53.027Z,5.20
2022-09-24T17:44:21.173Z,5.00
2022-09-24T17:46:53.000Z,5.00
2022-09-24T17:49:21.170Z,4.60
2022-09-24T17:51:49.510Z,4.77
2022-09-24T17:54:19.003Z,4.90
2022-09-24T17:56:47.044Z,4.93
2022-09-24T17:59:15.218Z,4.87
2022-09-24T18:01:43.970Z,5.00
2022-09-24T18:04:14.275Z,5.63
2022-09-24T18:06:43.197Z,5.30
2022-09-24T18:09:12.981Z,5.20
2022-09-24T18:11:42.296Z,5.20
2022-09-24T18:14:13.669Z,4.70
2022-09-24T18:16:41.984Z,4.47
2022-09-24T18:19:10.689Z,5.27
2022-09-24T18:21:40.199Z,4.70
2022-09-24T18:24:08.298Z,5.10
2022-09-24T18:26:36.769Z,5.17
2022-09-24T18:29:06.079Z,5.60
2022-09-24T18:31:34.756Z,5.37
2022-09-24T18:34:05.246Z,4.90
2022-09-24T18:36:33.689Z,5.13
2022-09-24T18:39:03.171Z,5.10
2022-09-24T18:41:31.354Z,5.77
2022-09-24T18:43:59.636Z,5.00
2022-09-24T18:46:28.988Z,4.77
2022-09-24T18:48:57.554Z,5.27
2022-09-24T18:51:26.414Z,5.37
2022-09-24T18:53:54.711Z,5.30
2022-09-24T18:56:24.932Z,5.00
2022-09-24T18:58:56.647Z,5.17
2022-09-24T19:01:25.294Z,5.40
2022-09-24T19:03:53.517Z,4.57
2022-09-24T19:06:21.538Z,5.30
2022-09-24T19:08:50.167Z,5.07
2022-09-24T19:11:22.999Z,5.40
2022-09-24T19:13:52.150Z,5.20
2022-09-24T19:16:20.966Z,5.10
2022-09-24T19:18:49.267Z,5.10
2022-09-24T19:21:17.300Z,5.37
2022-09-24T19:23:47.532Z,5.20
2022-09-24T19:26:16.489Z,4.90
2022-09-24T19:28:46.242Z,5.43
2022-09-24T19:31:15.050Z,4.87
2022-09-24T19:33:43.176Z,5.37
2022-09-24T19:36:11.424Z,5.30
2022-09-24T19:38:39.522Z,5.30
2022-09-24T19:41:10.565Z,5.27
2022-09-24T19:43:38.600Z,5.70
2022-09-24T19:46:08.848Z,5.50
2022-09-24T19:48:37.948Z,5.93
2022-09-24T19:51:10.429Z,5.60
2022-09-24T19:53:38.473Z,5.30
2022-09-24T19:56:07.153Z,5.23
2022-09-24T19:58:39.682Z,5.10
2022-09-24T20:01:12.471Z,5.13
2022-09-24T20:03:44.284Z,5.37
2022-09-24T20:06:13.469Z,5.13
2022-09-24T20:08:41.509Z,5.33
2022-09-24T20:11:10.261Z,5.00
2022-09-24T20:13:38.645Z,5.23
2022-09-24T20:16:08.353Z,5.40
2022-09-24T20:18:36.536Z,5.83
2022-09-24T20:21:05.164Z,5.53
2022-09-24T20:23:33.319Z,5.83
2022-09-24T20:26:18.677Z,5.57
2022-09-24T20:28:46.747Z,5.53
2022-09-24T20:31:19.219Z,5.53
2022-09-24T20:33:47.371Z,6.30
2022-09-24T20:36:17.967Z,5.80
2022-09-24T20:38:48.393Z,5.50
2022-09-24T20:41:17.304Z,5.80
2022-09-24T20:43:45.954Z,5.43
2022-09-24T20:46:18.284Z,5.70
2022-09-24T20:48:46.402Z,5.70
2022-09-24T20:51:15.266Z,5.83
2022-09-24T20:53:43.292Z,5.40
2022-09-24T20:56:11.348Z,5.53
2022-09-24T20:58:39.385Z,5.73
2022-09-24T21:01:07.861Z,5.13
2022-09-24T21:03:45.133Z,5.40
2022-09-24T21:06:16.618Z,5.97
2022-09-24T21:08:45.299Z,5.83
2022-09-24T21:11:16.096Z,5.23
2022-09-24T21:13:45.190Z,6.00
2022-09-24T21:16:13.397Z,6.20
2022-09-24T21:18:45.015Z,5.67
2022-09-24T21:21:16.657Z,5.53
2022-09-24T21:23:46.206Z,6.17
2022-09-24T21:26:15.217Z,5.43
2022-09-24T21:28:44.184Z,5.30
2022-09-24T21:31:12.331Z,5.70
2022-09-24T21:33:40.459Z,5.90
2022-09-24T21:36:11.923Z,5.83
2022-09-24T21:38:39.958Z,5.60
2022-09-24T21:41:09.509Z,6.57
2022-09-24T21:43:37.594Z,5.07
2022-09-24T21:46:06.750Z,6.07
2022-09-24T21:48:39.792Z,5.53
2022-09-24T21:51:10.422Z,6.20
2022-09-24T21:53:38.849Z,5.80
2022-09-24T21:56:07.134Z,6.13
2022-09-24T21:58:35.161Z,6.10
2022-09-24T22:01:05.319Z,6.30
2022-09-24T22:03:33.466Z,6.00
2022-09-24T22:06:03.723Z,5.80
2022-09-24T22:08:33.113Z,5.80
2022-09-24T22:11:01.900Z,6.00
2022-09-24T22:13:31.042Z,5.73
2022-09-24T22:15:59.917Z,5.50
2022-09-24T22:18:28.271Z,5.83
2022-09-24T22:20:56.401Z,6.23
2022-09-24T22:23:27.784Z,5.73
2022-09-24T22:25:57.266Z,6.87
2022-09-24T22:28:25.570Z,5.57
2022-09-24T22:30:53.748Z,6.07
2022-09-24T22:33:39.463Z,6.33
2022-09-24T22:36:07.748Z,5.00
2022-09-24T22:38:35.947Z,5.77
2022-09-24T22:41:12.304Z,6.13
2022-09-24T22:43:40.466Z,5.80
2022-09-24T22:46:09.993Z,6.40
2022-09-24T22:48:39.954Z,6.47
2022-09-24T22:51:08.416Z,5.83
2022-09-24T22:53:36.723Z,6.13
2022-09-24T22:56:05.926Z,6.00
2022-09-24T22:58:35.501Z,5.40
2022-09-24T23:01:08.482Z,6.00
2022-09-24T23:03:36.806Z,6.13
2022-09-24T23:06:06.095Z,6.33
2022-09-24T23:08:34.250Z,6.00
2022-09-24T23:11:07.386Z,5.97
2022-09-24T23:13:37.519Z,6.07
2022-09-24T23:16:10.525Z,5.63
2022-09-24T23:18:38.815Z,5.97
2022-09-24T23:21:07.657Z,5.73
2022-09-24T23:23:35.734Z,5.67
2022-09-24T23:26:05.311Z,5.67
2022-09-24T23:28:33.879Z,4.77
2022-09-24T23:31:03.433Z,5.40
2022-09-24T23:33:33.209Z,5.70
2022-09-24T23:36:04.132Z,5.67
2022-09-24T23:38:32.160Z,5.50
2022-09-24T23:41:02.175Z,5.40
2022-09-24T23:43:30.231Z,5.00
2022-09-24T23:45:58.383Z,5.17
2022-09-24T23:48:29.358Z,5.10
2022-09-24T23:50:58.466Z,5.40
2022-09-24T23:53:26.584Z,5.53
2022-09-24T23:55:55.325Z,5.40
2022-09-24T23:58:25.518Z,5.20
